Time;durP1;ratioP1;P1;durP2;ratioP2;P2;SDS_P1;SDS_P2;PMS_P1;PMS_P2;Temp;Humidity;BMP_temperature;BMP_pressure;BME280_temperature;BME280_humidity;BME280_pressure;Samples;Min_cycle;Max_cycle;Signal;HPM_P1;HPM_P2
2022/09/02 00:01:23;;;;;;;1.70;1.30;;;;;;;26.50;34.73;101390.72;4214996;28;20093;-48
2022/09/02 00:03:24;;;;;;;2.67;1.70;;;;;;;26.47;34.55;101388.53;4215574;28;20044;-49
2022/09/02 00:05:28;;;;;;;2.42;1.80;;;;;;;26.36;35.33;101379.44;4215173;28;20040;-50
2022/09/02 00:07:29;;;;;;;2.37;1.70;;;;;;;26.49;36.11;101405.91;4215353;28;20040;-49
2022/09/02 00:09:31;;;;;;;4.43;1.60;;;;;;;26.53;35.61;101395.72;4215164;28;20044;-51
2022/09/02 00:11:35;;;;;;;4.47;1.70;;;;;;;26.54;35.25;101398.22;4215194;28;20069;-48
2022/09/02 00:13:37;;;;;;;3.42;2.00;;;;;;;26.41;34.71;101387.75;4215196;28;20098;-49
2022/09/02 00:15:43;;;;;;;2.47;1.50;;;;;;;26.48;34.76;101410.69;4215178;28;20110;-51
2022/09/02 00:17:45;;;;;;;2.17;1.60;;;;;;;26.48;35.57;101409.81;4215061;28;20052;-49
2022/09/02 00:19:46;;;;;;;1.65;1.50;;;;;;;26.51;36.39;101421.28;4215571;28;20081;-50
2022/09/02 00:21:48;;;;;;;2.63;1.73;;;;;;;25.77;35.30;101294.88;4214899;28;20039;-49
2022/09/02 00:23:50;;;;;;;2.25;1.50;;;;;;;26.55;34.75;101418.69;4214866;28;20441;-52
2022/09/02 00:25:51;;;;;;;2.38;1.60;;;;;;;26.53;34.78;101426.59;4215509;28;20040;-51
2022/09/02 00:27:53;;;;;;;2.80;1.70;;;;;;;26.50;34.51;101435.63;4215036;28;20028;-50
2022/09/02 00:29:54;;;;;;;1.38;1.27;;;;;;;26.47;35.77;101430.63;4215043;28;20097;-50
2022/09/02 00:31:58;;;;;;;1.40;1.30;;;;;;;26.53;35.97;101437.81;4215041;28;20036;-49
2022/09/02 00:33:59;;;;;;;1.67;1.55;;;;;;;26.56;35.25;101440.81;4215443;28;20032;-48
2022/09/02 00:36:02;;;;;;;3.30;1.63;;;;;;;26.55;34.68;101450.41;4214818;28;20028;-48
2022/09/02 00:38:05;;;;;;;3.42;1.60;;;;;;;26.51;34.58;101459.75;4214826;28;20109;-50
2022/09/02 00:40:08;;;;;;;2.10;1.58;;;;;;;26.38;34.47;101447.28;4214596;28;20105;-49
2022/09/02 00:42:10;;;;;;;3.40;1.65;;;;;;;26.49;35.48;101462.03;4214974;28;20020;-49
2022/09/02 00:44:15;;;;;;;1.70;1.40;;;;;;;26.54;35.64;101475.97;4214823;28;20043;-49
2022/09/02 00:46:20;;;;;;;1.92;1.58;;;;;;;26.57;35.33;101475.34;4214883;28;20044;-49
2022/09/02 00:48:23;;;;;;;3.53;1.60;;;;;;;26.53;34.77;101482.72;4215233;28;20164;-50
2022/09/02 00:50:33;;;;;;;4.22;1.90;;;;;;;26.33;34.37;101459.44;4214829;28;20036;-48
2022/09/02 00:52:42;;;;;;;2.47;1.50;;;;;;;26.17;34.99;101449.59;4214773;28;20044;-51
2022/09/02 00:54:48;;;;;;;2.97;1.67;;;;;;;26.51;35.79;101505.47;4214684;28;20040;-48
2022/09/02 00:56:52;;;;;;;1.80;1.60;;;;;;;26.36;35.08;101470.06;4214633;28;20113;-50
2022/09/02 00:58:55;;;;;;;1.50;1.38;;;;;;;26.34;34.64;101472.34;4215008;28;20035;-48
2022/09/02 01:00:58;;;;;;;3.05;1.80;;;;;;;26.31;34.63;101483.34;4214633;28;20463;-51
2022/09/02 01:03:03;;;;;;;3.80;1.52;;;;;;;26.51;34.53;101518.69;4214456;28;20117;-51
2022/09/02 01:05:16;;;;;;;1.80;1.30;;;;;;;26.48;35.38;101524.88;4214288;28;20044;-50
2022/09/02 01:07:17;;;;;;;1.50;1.40;;;;;;;26.52;35.94;101528.75;4214832;28;20032;-48
2022/09/02 01:09:19;;;;;;;1.50;1.38;;;;;;;26.55;35.04;101528.16;4214800;28;20536;-52
2022/09/02 01:11:21;;;;;;;2.60;1.63;;;;;;;26.52;34.75;101528.75;4214100;28;20097;-54
2022/09/02 01:13:25;;;;;;;2.17;1.70;;;;;;;26.49;34.63;101533.03;4214706;28;20036;-52
2022/09/02 01:15:30;;;;;;;1.60;1.25;;;;;;;26.47;34.94;101538.09;4214387;28;20094;-50
2022/09/02 01:17:34;;;;;;;5.55;2.17;;;;;;;26.44;35.44;101526.66;4214486;28;20080;-50
2022/09/02 01:19:41;;;;;;;1.90;1.40;;;;;;;26.51;35.49;101532.72;4213955;28;20192;-52
2022/09/02 01:21:49;;;;;;;1.45;1.33;;;;;;;26.52;34.85;101539.97;4214348;28;20549;-48
2022/09/02 01:23:51;;;;;;;1.63;1.52;;;;;;;26.46;34.30;101535.59;4214227;28;20040;-50
2022/09/02 01:25:57;;;;;;;1.52;1.42;;;;;;;26.45;34.46;101540.38;4214232;28;20121;-51
2022/09/02 01:28:07;;;;;;;3.22;1.35;;;;;;;26.43;35.20;101536.16;4214206;28;20055;-49
2022/09/02 01:30:12;;;;;;;2.15;1.60;;;;;;;26.47;36.07;101538.09;4213150;28;20438;-50
2022/09/02 01:32:14;;;;;;;1.75;1.65;;;;;;;26.51;35.01;101539.16;4213857;28;20101;-51
2022/09/02 01:34:16;;;;;;;2.28;1.63;;;;;;;26.52;34.56;101551.22;4214644;28;20109;-51
2022/09/02 01:36:17;;;;;;;1.55;1.45;;;;;;;26.26;34.20;101508.66;4214094;28;20040;-50
2022/09/02 01:38:20;;;;;;;2.35;1.38;;;;;;;26.46;34.42;101541.22;4214115;28;20086;-50
2022/09/02 01:40:22;;;;;;;2.05;1.30;;;;;;;26.46;35.37;101541.22;4213956;28;20552;-52
2022/09/02 01:42:24;;;;;;;1.75;1.38;;;;;;;26.24;35.22;101502.50;4213748;28;20430;-53
2022/09/02 01:44:26;;;;;;;2.22;1.60;;;;;;;26.52;34.45;101539.97;4213777;28;20052;-51
2022/09/02 01:46:27;;;;;;;2.15;1.48;;;;;;;26.51;34.24;101555.16;4213921;28;20036;-49
2022/09/02 01:48:29;;;;;;;1.40;1.30;;;;;;;26.46;34.40;101541.22;4213887;28;20032;-48
2022/09/02 01:50:31;;;;;;;3.30;1.65;;;;;;;26.36;34.72;101537.41;4212837;28;20100;-50
2022/09/02 01:52:33;;;;;;;2.00;1.45;;;;;;;26.42;35.39;101534.50;4213837;28;20139;-48
2022/09/02 01:54:35;;;;;;;2.88;1.52;;;;;;;26.39;34.83;101524.75;4213726;28;20036;-50
2022/09/02 01:56:37;;;;;;;1.40;1.10;;;;;;;26.48;34.58;101547.34;4213746;28;20070;-51
2022/09/02 01:58:38;;;;;;;1.52;1.42;;;;;;;26.48;34.05;101544.53;4213797;28;20093;-51
2022/09/02 02:00:40;;;;;;;1.40;1.30;;;;;;;26.29;34.03;101525.69;4213519;28;20090;-50
2022/09/02 02:02:44;;;;;;;1.90;1.20;;;;;;;26.35;34.73;101544.16;4214100;28;20024;-50
2022/09/02 02:04:47;;;;;;;1.25;1.00;;;;;;;26.13;35.72;101504.66;4213765;28;20039;-51
2022/09/02 02:06:49;;;;;;;1.85;1.25;;;;;;;26.49;34.47;101547.06;4213036;28;20036;-49
2022/09/02 02:08:51;;;;;;;1.67;1.23;;;;;;;26.48;34.23;101553.81;4214114;28;20093;-50
2022/09/02 02:10:52;;;;;;;2.53;1.20;;;;;;;26.46;34.00;101558.06;4213500;28;20049;-52
2022/09/02 02:12:54;;;;;;;2.20;1.35;;;;;;;26.41;33.78;101556.13;4213563;28;20093;-52
2022/09/02 02:14:55;;;;;;;1.20;1.00;;;;;;;26.40;34.85;101562.88;4213781;28;20040;-51
2022/09/02 02:17:00;;;;;;;1.98;1.40;;;;;;;26.44;35.67;101566.78;4213587;28;20044;-52
2022/09/02 02:19:01;;;;;;;1.40;1.30;;;;;;;26.48;34.45;101566.97;4213402;28;20040;-49
2022/09/02 02:21:02;;;;;;;2.33;1.20;;;;;;;26.46;34.00;101574.88;4213302;28;20093;-49
2022/09/02 02:23:07;;;;;;;1.42;1.27;;;;;;;26.41;33.69;101572.97;4213799;28;20097;-51
2022/09/02 02:25:13;;;;;;;1.23;1.13;;;;;;;26.39;33.91;101574.38;4214181;28;20073;-52
2022/09/02 02:27:15;;;;;;;1.15;1.05;;;;;;;26.23;35.04;101554.97;4213641;28;20040;-50
2022/09/02 02:29:18;;;;;;;2.60;1.50;;;;;;;26.45;34.69;101590.06;4213675;28;20088;-50
2022/09/02 02:31:23;;;;;;;1.33;1.23;;;;;;;26.46;34.08;101589.75;4212995;28;20101;-49
2022/09/02 02:33:27;;;;;;;1.40;1.20;;;;;;;26.43;33.89;101595.09;4213477;28;20441;-50
2022/09/02 02:35:28;;;;;;;1.48;1.13;;;;;;;26.40;34.02;101595.72;4213337;28;20093;-51
2022/09/02 02:37:32;;;;;;;1.33;1.20;;;;;;;26.19;34.60;101572.72;4213864;28;20036;-51
2022/09/02 02:39:34;;;;;;;1.13;1.03;;;;;;;26.42;35.30;101601.84;4213496;28;20434;-52
2022/09/02 02:41:36;;;;;;;1.85;1.75;;;;;;;26.44;34.60;101606.06;4213233;28;20082;-48
2022/09/02 02:43:38;;;;;;;1.20;1.10;;;;;;;26.45;34.20;101607.72;4213487;28;20077;-50
2022/09/02 02:45:39;;;;;;;1.27;1.17;;;;;;;26.39;33.89;101602.44;4213614;28;20036;-48
2022/09/02 02:47:42;;;;;;;2.00;1.40;;;;;;;26.29;33.90;101604.25;4213933;28;20032;-50
2022/09/02 02:49:43;;;;;;;1.70;1.10;;;;;;;26.30;34.96;101611.56;4213390;28;20040;-49
2022/09/02 02:51:45;;;;;;;1.35;1.00;;;;;;;26.34;34.91;101615.44;4213152;28;20101;-51
2022/09/02 02:53:46;;;;;;;1.30;1.00;;;;;;;26.43;34.15;101625.97;4213370;28;20040;-49
2022/09/02 02:55:47;;;;;;;2.45;1.10;;;;;;;26.40;33.62;101623.78;4213367;28;20445;-49
2022/09/02 02:57:52;;;;;;;1.40;1.20;;;;;;;26.29;33.57;101609.03;4213386;28;20036;-53
2022/09/02 02:59:56;;;;;;;1.52;1.35;;;;;;;26.34;34.38;101623.88;4213065;28;20097;-51
2022/09/02 03:01:58;;;;;;;1.25;1.15;;;;;;;26.26;35.40;101616.09;4213731;28;20031;-51
2022/09/02 03:04:03;;;;;;;1.25;1.20;;;;;;;25.99;34.39;101574.66;4216321;28;20028;-53
2022/09/02 03:06:04;;;;;;;;;;;;;;;26.40;33.88;101640.63;4216859;28;20113;-54
2022/09/02 03:08:08;;;;;;;1.40;1.10;;;;;;;26.39;33.77;101641.72;4216547;28;19912;-52
2022/09/02 03:10:12;;;;;;;1.65;1.10;;;;;;;26.38;33.50;101646.50;4216437;28;20044;-51
2022/09/02 03:12:16;;;;;;;1.73;1.30;;;;;;;26.38;34.67;101645.69;4216462;28;20097;-53
2022/09/02 03:14:18;;;;;;;1.10;1.00;;;;;;;26.27;34.41;101623.38;4215188;28;20043;-50
2022/09/02 03:16:22;;;;;;;1.30;1.20;;;;;;;26.39;33.96;101642.59;4215902;28;20040;-53
2022/09/02 03:18:24;;;;;;;1.20;1.10;;;;;;;26.40;33.71;101646.22;4213983;28;20043;-48
2022/09/02 03:20:26;;;;;;;1.13;0.90;;;;;;;26.35;33.39;101653.59;4215680;28;20109;-49
2022/09/02 03:22:27;;;;;;;1.02;0.93;;;;;;;26.21;33.99;101643.41;4216156;28;20047;-51
2022/09/02 03:24:28;;;;;;;1.25;1.15;;;;;;;26.32;34.83;101662.59;4215923;28;20472;-50
2022/09/02 03:26:30;;;;;;;2.17;1.00;;;;;;;26.36;34.03;101660.84;4216070;28;20553;-51
2022/09/02 03:28:32;;;;;;;1.30;1.20;;;;;;;26.16;33.68;101621.88;4216008;28;20036;-52
2022/09/02 03:30:35;;;;;;;1.48;0.90;;;;;;;26.33;33.39;101653.03;4215842;28;20117;-52
2022/09/02 03:32:36;;;;;;;1.33;1.23;;;;;;;26.30;33.38;101667.69;4214327;28;20040;-50
2022/09/02 03:34:38;;;;;;;2.40;1.23;;;;;;;26.29;34.46;101663.19;4215938;28;20112;-49
2022/09/02 03:36:43;;;;;;;1.05;1.00;;;;;;;26.32;34.39;101671.00;4215786;28;20468;-52
2022/09/02 03:38:44;;;;;;;2.50;1.20;;;;;;;26.36;33.79;101660.84;4215611;28;20041;-52
2022/09/02 03:40:45;;;;;;;1.20;1.02;;;;;;;26.34;33.68;101673.50;4215667;28;20093;-49
2022/09/02 03:42:46;;;;;;;1.52;1.20;;;;;;;26.21;33.34;101660.22;4215704;28;20036;-52
2022/09/02 03:44:48;;;;;;;1.10;1.00;;;;;;;26.25;33.49;101673.38;4216075;28;20070;-50
2022/09/02 03:46:58;;;;;;;1.85;1.23;;;;;;;26.09;34.37;101646.63;4215754;28;20032;-50
2022/09/02 03:48:59;;;;;;;1.10;1.00;;;;;;;26.32;33.87;101665.41;4215628;28;20101;-52
2022/09/02 03:51:01;;;;;;;1.38;1.05;;;;;;;26.21;33.44;101661.06;4215662;28;20101;-49
2022/09/02 03:53:03;;;;;;;1.02;1.00;;;;;;;26.29;33.57;101677.22;4215522;28;20101;-50
2022/09/02 03:55:05;;;;;;;1.48;1.35;;;;;;;26.24;33.10;101684.88;4216068;28;20028;-48
2022/09/02 03:57:06;;;;;;;1.42;0.98;;;;;;;26.23;33.75;101675.63;4215431;28;20047;-50
2022/09/02 03:59:07;;;;;;;1.25;1.00;;;;;;;26.23;34.78;101664.41;4222050;28;20047;-50
2022/09/02 04:01:17;;;;;;;1.70;1.00;;;;;;;26.29;33.76;101674.41;4222474;28;20555;-49
2022/09/02 04:03:19;;;;;;;2.97;1.08;;;;;;;26.10;33.43;101637.91;4228524;28;20044;-52
2022/09/02 04:05:21;;;;;;;1.08;0.98;;;;;;;26.26;33.13;101674.19;4225720;28;20559;-51
2022/09/02 04:07:26;;;;;;;2.30;1.05;;;;;;;26.20;33.39;101679.00;4232192;28;20036;-50
2022/09/02 04:09:27;;;;;;;1.30;1.20;;;;;;;26.19;34.26;101677.34;4232159;28;20092;-48
2022/09/02 04:11:29;;;;;;;1.00;1.00;;;;;;;26.29;34.04;101685.63;4232200;28;20085;-50
2022/09/02 04:13:30;;;;;;;1.50;1.30;;;;;;;26.29;33.58;101682.00;4230208;28;20092;-50
2022/09/02 04:15:41;;;;;;;1.30;1.00;;;;;;;26.16;33.08;101675.16;4229305;28;20128;-49
2022/09/02 04:17:52;;;;;;;1.20;1.00;;;;;;;26.22;32.83;101693.59;4217496;28;20040;-50
2022/09/02 04:19:54;;;;;;;1.80;0.85;;;;;;;26.21;33.65;101691.94;4216813;28;20465;-51
2022/09/02 04:21:58;;;;;;;1.33;1.23;;;;;;;26.26;33.99;101697.47;4225082;27;20039;-53
2022/09/02 04:23:59;;;;;;;0.90;0.90;;;;;;;26.29;33.58;101698.81;4228787;28;20521;-52
2022/09/02 04:26:07;;;;;;;1.40;1.10;;;;;;;26.24;33.45;101710.94;4224440;28;20089;-50
2022/09/02 04:28:09;;;;;;;1.42;1.02;;;;;;;26.22;33.17;101713.22;4218445;28;20449;-50
2022/09/02 04:30:15;;;;;;;6.57;1.55;;;;;;;26.18;33.56;101714.94;4215151;28;20093;-51
2022/09/02 04:32:16;;;;;;;3.55;1.40;;;;;;;26.17;34.61;101707.69;4216937;28;20495;-50
2022/09/02 04:34:18;;;;;;;9.48;1.33;;;;;;;26.26;33.57;101725.53;4231641;28;20434;-51
2022/09/02 04:36:24;;;;;;;8.55;1.35;;;;;;;26.08;33.21;101699.09;4231420;28;20097;-51
2022/09/02 04:38:25;;;;;;;5.18;1.70;;;;;;;26.22;33.10;101732.03;4229430;28;20528;-52
2022/09/02 04:40:27;;;;;;;7.63;1.40;;;;;;;26.18;33.38;101743.00;4231644;28;20051;-52
2022/09/02 04:42:29;;;;;;;2.40;1.40;;;;;;;26.13;34.03;101740.25;4226751;28;20039;-50
2022/09/02 04:44:31;;;;;;;7.60;1.33;;;;;;;26.23;33.89;101742.13;4213913;28;20040;-50
2022/09/02 04:46:32;;;;;;;3.58;1.40;;;;;;;26.24;33.55;101747.41;4214661;28;20097;-51
2022/09/02 04:48:37;;;;;;;11.65;1.35;;;;;;;26.21;32.87;101748.03;4227832;28;20152;-50
2022/09/02 04:50:40;;;;;;;4.68;1.20;;;;;;;26.18;33.04;101751.41;4229371;28;20036;-51
2022/09/02 04:52:44;;;;;;;4.72;1.70;;;;;;;26.15;33.54;101752.00;4231019;28;20089;-52
2022/09/02 04:54:46;;;;;;;3.85;1.30;;;;;;;26.18;34.43;101748.63;4224430;28;20101;-52
2022/09/02 04:56:47;;;;;;;6.18;1.40;;;;;;;26.22;33.54;101746.06;4214647;28;20044;-50
2022/09/02 04:58:50;;;;;;;6.60;1.17;;;;;;;26.18;33.15;101748.63;4214569;28;20044;-50
2022/09/02 05:00:51;;;;;;;3.95;1.02;;;;;;;26.19;33.12;101755.06;4230025;28;20380;-52
2022/09/02 05:02:54;;;;;;;6.40;1.20;;;;;;;26.13;32.91;101748.69;4231116;28;20444;-53
2022/09/02 05:04:55;;;;;;;4.47;1.25;;;;;;;26.15;34.25;101757.63;4223760;28;20442;-50
2022/09/02 05:07:03;;;;;;;5.07;1.30;;;;;;;26.18;33.80;101748.63;4214486;28;20040;-50
2022/09/02 05:09:07;;;;;;;7.88;1.52;;;;;;;26.20;33.39;101749.16;4228631;28;20043;-51
2022/09/02 05:11:13;;;;;;;1.23;1.10;;;;;;;26.17;33.31;101752.56;4215701;28;20097;-49
2022/09/02 05:13:17;;;;;;;4.95;1.10;;;;;;;26.13;32.92;101745.88;4222071;28;20043;-52
2022/09/02 05:15:18;;;;;;;2.08;1.15;;;;;;;26.09;33.92;101756.00;4230790;28;20458;-50
2022/09/02 05:17:20;;;;;;;2.45;1.33;;;;;;;26.17;34.05;101757.34;4228906;28;20036;-52
2022/09/02 05:19:26;;;;;;;3.53;1.13;;;;;;;26.17;33.25;101757.34;4226091;28;20040;-51
2022/09/02 05:21:27;;;;;;;2.13;1.17;;;;;;;26.18;32.92;101764.63;4213839;28;20093;-49
2022/09/02 05:23:28;;;;;;;4.75;1.00;;;;;;;26.10;32.93;101758.50;4226178;28;20039;-49
2022/09/02 05:25:30;;;;;;;3.40;1.00;;;;;;;26.10;33.24;101774.50;4225670;28;20035;-51
2022/09/02 05:27:32;;;;;;;1.85;1.10;;;;;;;26.12;34.36;101777.88;4229489;28;20348;-51
2022/09/02 05:29:55;;;;;;;2.95;0.90;;;;;;;26.16;33.48;101778.09;4230310;28;20039;-51
2022/09/02 05:31:55;;;;;;;3.25;0.90;;;;;;;26.16;33.21;101784.56;4213670;28;20116;-49
2022/09/02 05:33:56;;;;;;;2.08;1.20;;;;;;;26.15;33.10;101782.03;4214303;28;20449;-49
2022/09/02 05:35:58;;;;;;;2.75;0.90;;;;;;;26.11;33.17;101781.78;4215428;28;20040;-50
2022/09/02 05:37:59;;;;;;;6.35;1.00;;;;;;;26.11;34.40;101787.38;4213530;28;20048;-49
2022/09/02 05:40:01;;;;;;;2.92;0.90;;;;;;;26.13;33.82;101785.16;4215178;28;20047;-49
2022/09/02 05:42:02;;;;;;;2.13;1.02;;;;;;;26.16;33.41;101790.16;4229990;28;20097;-49
2022/09/02 05:44:05;;;;;;;5.32;1.05;;;;;;;26.15;33.07;101794.09;4228827;28;20457;-49
2022/09/02 05:46:08;;;;;;;1.83;1.10;;;;;;;26.09;33.06;101795.28;4230835;28;20092;-50
2022/09/02 05:50:31;;;;;;;3.60;1.00;;;;;;;26.13;34.12;101806.75;4201504;28;20552;-50
2022/09/02 05:52:33;;;;;;;2.75;1.00;;;;;;;26.14;33.60;101809.25;4213827;28;20434;-50
2022/09/02 05:54:36;;;;;;;1.27;0.80;;;;;;;26.12;33.17;101810.69;4215445;28;20371;-51
2022/09/02 05:56:39;;;;;;;1.80;0.90;;;;;;;26.06;32.98;101807.09;4213655;28;20048;-49
2022/09/02 05:58:40;;;;;;;4.15;1.13;;;;;;;26.06;33.49;101813.53;4214633;28;20097;-51
2022/09/02 06:00:42;;;;;;;0.90;0.77;;;;;;;26.01;34.53;101798.72;4230198;28;20104;-52
2022/09/02 06:02:46;;;;;;;0.80;0.75;;;;;;;26.13;33.68;101818.81;4230627;28;20089;-52
2022/09/02 06:04:49;;;;;;;4.23;0.90;;;;;;;26.09;33.16;101823.34;4226434;28;20524;-52
2022/09/02 06:06:51;;;;;;;2.90;1.02;;;;;;;26.09;33.17;101828.94;4230642;28;20661;-52
2022/09/02 06:08:52;;;;;;;6.20;0.90;;;;;;;26.06;33.10;101823.91;4229180;28;20104;-53
2022/09/02 06:10:53;;;;;;;1.98;1.00;;;;;;;26.04;34.60;101821.41;4229593;28;20089;-49
2022/09/02 06:12:55;;;;;;;10.82;1.17;;;;;;;26.11;33.58;101826.66;4230536;28;20047;-51
2022/09/02 06:14:56;;;;;;;4.75;0.93;;;;;;;26.10;33.22;101825.00;4229354;28;20024;-51
2022/09/02 06:16:58;;;;;;;3.03;0.90;;;;;;;26.07;32.94;101834.00;4230695;28;20101;-50
2022/09/02 06:19:02;;;;;;;5.43;1.17;;;;;;;26.03;33.23;101825.34;4228747;28;20040;-51
2022/09/02 06:21:04;;;;;;;6.63;0.82;;;;;;;26.04;34.36;101838.25;4230488;28;20023;-49
2022/09/02 06:23:06;;;;;;;4.70;0.80;;;;;;;26.07;33.52;101843.28;4228291;28;20097;-51
2022/09/02 06:25:07;;;;;;;3.92;1.08;;;;;;;26.06;33.33;101835.13;4230342;28;20039;-52
2022/09/02 06:27:09;;;;;;;5.25;0.90;;;;;;;26.03;33.25;101835.75;4228825;28;20072;-51
2022/09/02 06:29:10;;;;;;;4.40;0.90;;;;;;;26.03;32.90;101841.34;4230436;28;20089;-51
2022/09/02 06:31:17;;;;;;;4.85;1.10;;;;;;;26.01;33.81;101843.59;4230014;28;20097;-50
2022/09/02 06:33:21;;;;;;;9.27;1.27;;;;;;;25.95;34.02;101833.56;4228887;28;20124;-52
2022/09/02 06:35:23;;;;;;;4.20;1.00;;;;;;;25.88;33.37;101819.03;4230779;28;20039;-50
2022/09/02 06:37:24;;;;;;;2.67;0.85;;;;;;;26.05;33.12;101844.69;4230292;28;20035;-52
2022/09/02 06:39:31;;;;;;;3.33;0.85;;;;;;;25.89;32.94;101834.72;4232359;28;20105;-49
2022/09/02 06:41:33;;;;;;;1.92;0.70;;;;;;;25.94;33.67;101848.72;4232755;28;20075;-51
2022/09/02 06:43:35;;;;;;;4.97;1.67;;;;;;;26.02;34.17;101850.88;4231897;28;20039;-51
2022/09/02 06:45:43;;;;;;;3.40;1.00;;;;;;;26.03;33.24;101852.56;4231531;28;20043;-49
2022/09/02 06:47:44;;;;;;;4.20;1.13;;;;;;;25.98;33.05;101849.78;4233826;28;20081;-50
2022/09/02 06:49:46;;;;;;;1.77;0.95;;;;;;;25.97;32.63;101853.72;4231484;28;20638;-52
2022/09/02 06:51:50;;;;;;;3.30;0.73;;;;;;;25.96;33.52;101849.25;4233540;28;20413;-49
2022/09/02 06:53:51;;;;;;;2.15;0.95;;;;;;;25.98;34.02;101849.78;4233553;27;20084;-49
2022/09/02 06:55:55;;;;;;;2.28;0.70;;;;;;;26.02;33.55;101850.88;4232394;28;20039;-52
2022/09/02 06:57:57;;;;;;;3.05;0.95;;;;;;;26.02;32.79;101853.69;4233449;28;20039;-50
2022/09/02 07:00:03;;;;;;;3.08;0.80;;;;;;;25.99;32.69;101857.09;4232195;28;20547;-50
2022/09/02 07:02:04;;;;;;;1.85;0.80;;;;;;;25.96;32.97;101860.47;4232459;28;20043;-49
2022/09/02 07:06:26;;;;;;;1.00;0.82;;;;;;;25.80;33.06;101832.56;4233251;28;20072;-49
2022/09/02 07:08:28;;;;;;;2.33;0.73;;;;;;;25.99;33.25;101866.34;4233218;28;20039;-53
2022/09/02 07:10:29;;;;;;;4.10;1.15;;;;;;;25.97;32.93;101870.56;4231317;28;20039;-51
2022/09/02 07:12:31;;;;;;;2.83;0.90;;;;;;;25.92;32.95;101867.78;4232311;28;20077;-51
2022/09/02 07:14:40;;;;;;;1.88;0.77;;;;;;;25.92;33.94;101873.41;4232958;28;20043;-52
2022/09/02 07:16:47;;;;;;;1.38;0.60;;;;;;;25.97;33.15;101876.16;4233182;27;20039;-52
2022/09/02 07:18:51;;;;;;;2.63;0.85;;;;;;;25.98;33.12;101877.81;4231467;28;20092;-51
2022/09/02 07:20:54;;;;;;;2.92;0.70;;;;;;;25.94;33.01;101876.75;4232759;28;20444;-52
2022/09/02 07:22:55;;;;;;;3.25;0.65;;;;;;;25.90;32.74;101875.66;4231199;28;20047;-50
2022/09/02 07:24:57;;;;;;;1.90;0.70;;;;;;;25.91;33.77;101882.94;4232923;28;20461;-51
2022/09/02 07:26:58;;;;;;;1.23;0.70;;;;;;;25.94;33.38;101877.59;4232760;28;20540;-53
2022/09/02 07:28:59;;;;;;;0.98;0.60;;;;;;;25.95;32.74;101884.03;4231336;28;20096;-52
2022/09/02 07:31:06;;;;;;;1.13;0.60;;;;;;;25.92;32.52;101881.81;4232567;28;20425;-49
2022/09/02 07:33:12;;;;;;;1.30;0.88;;;;;;;25.88;32.95;101884.34;4231307;28;20040;-48
2022/09/02 07:35:16;;;;;;;0.68;0.50;;;;;;;25.88;33.62;101889.97;4232605;28;20490;-52
2022/09/02 07:37:18;;;;;;;0.60;0.60;;;;;;;25.87;33.12;101881.84;4232797;28;20391;-52
2022/09/02 07:39:19;;;;;;;0.90;0.80;;;;;;;25.91;32.88;101888.56;4219195;28;20360;-52
2022/09/02 07:41:22;;;;;;;2.10;0.68;;;;;;;25.88;32.73;101889.13;4215167;28;20093;-52
2022/09/02 07:43:23;;;;;;;1.75;0.70;;;;;;;25.69;32.58;101863.72;4218657;28;20035;-52
2022/09/02 07:45:25;;;;;;;1.98;0.57;;;;;;;25.84;33.73;101900.94;4215841;28;20103;-51
2022/09/02 07:47:26;;;;;;;1.60;0.60;;;;;;;25.89;33.52;101899.22;4215784;28;20040;-52
2022/09/02 07:49:30;;;;;;;0.90;0.60;;;;;;;25.83;33.00;101895.63;4226868;28;20044;-51
2022/09/02 07:51:39;;;;;;;1.73;0.57;;;;;;;25.84;32.48;101903.75;4232617;28;20040;-51
2022/09/02 07:53:42;;;;;;;0.50;0.50;;;;;;;25.82;32.77;101908.81;4230841;28;20040;-52
2022/09/02 07:55:44;;;;;;;2.13;0.75;;;;;;;25.79;33.27;101909.38;4232476;28;20089;-50
2022/09/02 07:57:53;;;;;;;1.85;0.70;;;;;;;25.84;32.95;101914.97;4232422;28;20043;-51
2022/09/02 07:59:54;;;;;;;2.05;0.70;;;;;;;25.87;32.82;101923.91;4230811;27;20112;-52
2022/09/02 08:01:56;;;;;;;0.98;0.70;;;;;;;25.80;32.50;101922.28;4231949;28;20092;-53
2022/09/02 08:03:57;;;;;;;2.08;0.60;;;;;;;25.76;32.54;101926.78;4231292;28;20051;-50
2022/09/02 08:06:01;;;;;;;0.80;0.60;;;;;;;25.70;33.20;101925.09;4232176;28;20093;-52
2022/09/02 08:08:03;;;;;;;0.50;0.50;;;;;;;25.72;33.23;101922.88;4232106;28;20840;-52
2022/09/02 08:10:09;;;;;;;1.05;0.65;;;;;;;25.84;32.93;101945.81;4231192;28;20490;-49
2022/09/02 08:12:10;;;;;;;0.80;0.60;;;;;;;25.83;32.27;101938.50;4230487;28;20044;-51
2022/09/02 08:14:16;;;;;;;0.63;0.63;;;;;;;25.80;32.43;101946.69;4231976;28;20097;-52
2022/09/02 08:16:18;;;;;;;0.88;0.68;;;;;;;25.77;33.43;101950.91;4230935;28;20055;-50
2022/09/02 08:18:20;;;;;;;0.80;0.52;;;;;;;25.79;32.88;101947.78;4215125;28;20036;-49
2022/09/02 08:20:21;;;;;;;3.40;0.70;;;;;;;25.63;32.73;101927.41;4214889;28;20422;-50
2022/09/02 08:22:23;;;;;;;1.02;0.57;;;;;;;25.79;32.36;101959.00;4222906;28;20036;-52
2022/09/02 08:24:24;;;;;;;0.82;0.80;;;;;;;25.71;32.66;101949.22;4231797;27;20035;-52
2022/09/02 08:26:28;;;;;;;3.33;0.70;;;;;;;25.75;32.94;101955.06;4230811;28;20081;-49
2022/09/02 08:28:33;;;;;;;1.25;0.60;;;;;;;25.78;32.92;101963.78;4214811;28;20040;-52
2022/09/02 08:30:38;;;;;;;1.45;1.02;;;;;;;25.80;32.85;101961.53;4215720;28;20065;-52
2022/09/02 08:32:39;;;;;;;1.17;0.70;;;;;;;25.76;32.46;101966.03;4223815;28;20084;-52
2022/09/02 08:34:41;;;;;;;0.75;0.50;;;;;;;25.74;32.31;101976.66;4231714;28;20474;-52
2022/09/02 08:36:42;;;;;;;0.82;0.43;;;;;;;25.75;33.05;101971.88;4229771;28;20032;-52
2022/09/02 08:38:43;;;;;;;0.65;0.50;;;;;;;25.77;33.03;101973.31;4217067;28;20043;-52
2022/09/02 08:40:47;;;;;;;0.75;0.60;;;;;;;25.77;32.59;101973.31;4214489;28;20036;-49
2022/09/02 08:42:53;;;;;;;0.70;0.63;;;;;;;25.76;32.31;101976.44;4223734;28;20104;-51
2022/09/02 08:45:02;;;;;;;0.60;0.60;;;;;;;25.71;32.07;101982.88;4230859;28;20044;-49
2022/09/02 08:47:10;;;;;;;1.88;0.73;;;;;;;25.71;32.74;101980.06;4230156;28;20101;-50
2022/09/02 08:49:27;;;;;;;0.80;0.80;;;;;;;25.75;32.95;101981.16;4231505;28;20492;-49
2022/09/02 08:51:50;;;;;;;0.93;0.60;;;;;;;25.74;32.53;101985.06;4231707;28;20148;-50
2022/09/02 08:53:57;;;;;;;0.70;0.70;;;;;;;25.75;32.29;101980.31;4214768;28;20047;-50
2022/09/02 08:56:02;;;;;;;1.63;0.57;;;;;;;25.71;32.69;101988.47;4214683;28;20047;-52
2022/09/02 08:58:03;;;;;;;0.98;0.60;;;;;;;25.67;33.57;101978.13;4223812;28;20036;-61
2022/09/02 09:00:08;;;;;;;2.30;0.80;;;;;;;25.77;32.93;101995.75;4230862;28;20073;-51
2022/09/02 09:02:21;;;;;;;0.60;0.60;;;;;;;25.77;32.68;102000.53;4229343;28;20035;-51
2022/09/02 09:04:50;;;;;;;0.52;0.52;;;;;;;25.73;32.12;101997.41;4231271;28;20043;-48
2022/09/02 09:07:17;;;;;;;0.73;0.63;;;;;;;25.73;32.63;102005.00;4229438;28;20120;-54
2022/09/02 09:09:35;;;;;;;0.47;0.40;;;;;;;25.76;33.28;102013.72;4231347;28;20052;-51
2022/09/02 09:12:01;;;;;;;1.42;0.95;;;;;;;25.73;32.61;102011.44;4229583;28;20077;-51
2022/09/02 09:14:55;;;;;;;0.85;0.60;;;;;;;25.71;32.59;102013.72;4231045;28;20040;-51
2022/09/02 09:17:10;;;;;;;2.45;0.52;;;;;;;25.71;32.67;102010.91;4198830;28;20096;-51
2022/09/02 09:19:14;;;;;;;2.13;0.68;;;;;;;25.74;33.28;102018.72;4231109;28;20061;-50
2022/09/02 09:21:17;;;;;;;1.48;0.65;;;;;;;25.78;32.93;102019.00;4229321;28;20544;-48
2022/09/02 09:23:29;;;;;;;0.60;0.60;;;;;;;25.75;32.34;102026.03;4231139;28;20047;-51
2022/09/02 09:25:31;;;;;;;2.35;0.50;;;;;;;23.14;32.44;101602.53;4228325;28;20433;-49
2022/09/02 09:27:32;;;;;;;0.95;0.57;;;;;;;25.71;32.45;102033.31;4231051;28;20036;-51
2022/09/02 09:29:35;;;;;;;0.63;0.52;;;;;;;25.72;33.65;102035.00;4231471;28;20019;-53
2022/09/02 09:31:37;;;;;;;0.60;0.60;;;;;;;25.56;32.81;102010.94;4221864;28;20081;-51
2022/09/02 09:33:59;;;;;;;0.82;0.50;;;;;;;25.73;32.45;102045.09;4213738;28;20040;-50
2022/09/02 09:36:04;;;;;;;0.50;0.47;;;;;;;25.70;31.98;102042.84;4216002;28;20035;-51
2022/09/02 09:38:12;;;;;;;2.20;0.40;;;;;;;25.66;32.29;102038.09;4226863;28;20035;-50
2022/09/02 09:40:23;;;;;;;0.50;0.50;;;;;;;25.65;33.40;102037.25;4231445;28;20057;-48